sensor_id;sensor_type;location;lat;lon;timestamp;temperature;humidity
5960;DHT22;3006;50.956;7.002;2023-09-12T00:00:55;23.70;71.40
5960;DHT22;3006;50.956;7.002;2023-09-12T00:03:23;23.80;71.40
5960;DHT22;3006;50.956;7.002;2023-09-12T00:05:52;23.90;70.50
5960;DHT22;3006;50.956;7.002;2023-09-12T00:08:21;23.80;71.20
5960;DHT22;3006;50.956;7.002;2023-09-12T00:10:59;23.80;71.10
5960;DHT22;3006;50.956;7.002;2023-09-12T00:13:28;23.60;71.20
5960;DHT22;3006;50.956;7.002;2023-09-12T00:15:58;23.30;72.20
5960;DHT22;3006;50.956;7.002;2023-09-12T00:18:26;23.20;72.60
5960;DHT22;3006;50.956;7.002;2023-09-12T00:20:55;23.10;73.20
5960;DHT22;3006;50.956;7.002;2023-09-12T00:23:24;23.20;72.70
5960;DHT22;3006;50.956;7.002;2023-09-12T00:25:52;23.20;72.50
5960;DHT22;3006;50.956;7.002;2023-09-12T00:28:20;23.00;73.20
5960;DHT22;3006;50.956;7.002;2023-09-12T00:30:49;23.10;73.00
5960;DHT22;3006;50.956;7.002;2023-09-12T00:33:18;23.10;72.70
5960;DHT22;3006;50.956;7.002;2023-09-12T00:35:47;22.80;73.30
5960;DHT22;3006;50.956;7.002;2023-09-12T00:38:15;22.90;73.70
5960;DHT22;3006;50.956;7.002;2023-09-12T00:40:43;23.10;72.40
5960;DHT22;3006;50.956;7.002;2023-09-12T00:43:11;23.10;72.00
5960;DHT22;3006;50.956;7.002;2023-09-12T00:45:40;23.00;72.50
5960;DHT22;3006;50.956;7.002;2023-09-12T00:48:09;22.90;73.00
5960;DHT22;3006;50.956;7.002;2023-09-12T00:50:41;22.70;73.80
5960;DHT22;3006;50.956;7.002;2023-09-12T00:53:10;22.90;73.20
5960;DHT22;3006;50.956;7.002;2023-09-12T00:55:40;22.90;73.30
5960;DHT22;3006;50.956;7.002;2023-09-12T00:58:10;23.00;73.10
5960;DHT22;3006;50.956;7.002;2023-09-12T01:00:39;23.10;72.90
5960;DHT22;3006;50.956;7.002;2023-09-12T01:03:08;23.30;71.90
5960;DHT22;3006;50.956;7.002;2023-09-12T01:05:37;23.20;72.60
5960;DHT22;3006;50.956;7.002;2023-09-12T01:08:06;23.10;72.70
5960;DHT22;3006;50.956;7.002;2023-09-12T01:10:35;23.00;73.10
5960;DHT22;3006;50.956;7.002;2023-09-12T01:13:03;23.10;72.60
5960;DHT22;3006;50.956;7.002;2023-09-12T01:15:31;22.90;73.00
5960;DHT22;3006;50.956;7.002;2023-09-12T01:18:00;22.90;73.60
5960;DHT22;3006;50.956;7.002;2023-09-12T01:20:32;23.00;73.10
5960;DHT22;3006;50.956;7.002;2023-09-12T01:23:20;23.10;72.70
5960;DHT22;3006;50.956;7.002;2023-09-12T01:28:49;23.00;73.00
5960;DHT22;3006;50.956;7.002;2023-09-12T01:31:19;23.00;72.90
5960;DHT22;3006;50.956;7.002;2023-09-12T01:33:48;23.10;72.50
5960;DHT22;3006;50.956;7.002;2023-09-12T01:36:16;23.00;72.70
5960;DHT22;3006;50.956;7.002;2023-09-12T01:38:44;22.80;73.30
5960;DHT22;3006;50.956;7.002;2023-09-12T01:41:12;22.70;73.90
5960;DHT22;3006;50.956;7.002;2023-09-12T01:43:41;22.60;74.20
5960;DHT22;3006;50.956;7.002;2023-09-12T01:46:12;22.70;74.00
5960;DHT22;3006;50.956;7.002;2023-09-12T01:48:42;22.60;74.30
5960;DHT22;3006;50.956;7.002;2023-09-12T01:51:13;22.50;74.90
5960;DHT22;3006;50.956;7.002;2023-09-12T01:53:45;22.30;75.60
5960;DHT22;3006;50.956;7.002;2023-09-12T01:56:13;22.10;76.30
5960;DHT22;3006;50.956;7.002;2023-09-12T01:58:42;22.50;75.40
5960;DHT22;3006;50.956;7.002;2023-09-12T02:01:12;22.50;75.40
5960;DHT22;3006;50.956;7.002;2023-09-12T02:03:40;22.50;75.00
5960;DHT22;3006;50.956;7.002;2023-09-12T02:06:08;22.70;74.00
5960;DHT22;3006;50.956;7.002;2023-09-12T02:08:37;22.50;74.90
5960;DHT22;3006;50.956;7.002;2023-09-12T02:11:05;22.60;73.90
5960;DHT22;3006;50.956;7.002;2023-09-12T02:13:33;22.50;74.30
5960;DHT22;3006;50.956;7.002;2023-09-12T02:16:01;22.50;73.80
5960;DHT22;3006;50.956;7.002;2023-09-12T02:18:32;22.30;74.10
5960;DHT22;3006;50.956;7.002;2023-09-12T02:21:00;22.30;74.70
5960;DHT22;3006;50.956;7.002;2023-09-12T02:23:28;22.50;73.70
5960;DHT22;3006;50.956;7.002;2023-09-12T02:25:56;22.50;73.80
5960;DHT22;3006;50.956;7.002;2023-09-12T02:28:25;22.30;74.20
5960;DHT22;3006;50.956;7.002;2023-09-12T02:30:53;22.20;74.20
5960;DHT22;3006;50.956;7.002;2023-09-12T02:33:21;22.20;74.40
5960;DHT22;3006;50.956;7.002;2023-09-12T02:35:51;22.20;74.40
5960;DHT22;3006;50.956;7.002;2023-09-12T02:38:19;22.30;74.10
5960;DHT22;3006;50.956;7.002;2023-09-12T02:40:47;22.30;73.70
5960;DHT22;3006;50.956;7.002;2023-09-12T02:43:15;22.20;74.00
5960;DHT22;3006;50.956;7.002;2023-09-12T02:45:43;22.10;74.10
5960;DHT22;3006;50.956;7.002;2023-09-12T02:48:11;22.00;74.50
5960;DHT22;3006;50.956;7.002;2023-09-12T02:50:39;22.10;74.00
5960;DHT22;3006;50.956;7.002;2023-09-12T02:53:09;22.10;73.50
5960;DHT22;3006;50.956;7.002;2023-09-12T02:55:39;22.10;73.70
5960;DHT22;3006;50.956;7.002;2023-09-12T02:58:09;22.10;74.10
5960;DHT22;3006;50.956;7.002;2023-09-12T03:00:38;22.30;73.30
5960;DHT22;3006;50.956;7.002;2023-09-12T03:03:07;22.10;73.70
5960;DHT22;3006;50.956;7.002;2023-09-12T03:05:36;22.20;73.50
5960;DHT22;3006;50.956;7.002;2023-09-12T03:08:04;22.10;73.30
5960;DHT22;3006;50.956;7.002;2023-09-12T03:10:34;22.10;72.70
5960;DHT22;3006;50.956;7.002;2023-09-12T03:13:02;21.90;73.00
5960;DHT22;3006;50.956;7.002;2023-09-12T03:15:35;22.10;72.90
5960;DHT22;3006;50.956;7.002;2023-09-12T03:18:07;22.20;72.50
5960;DHT22;3006;50.956;7.002;2023-09-12T03:20:38;22.20;72.50
5960;DHT22;3006;50.956;7.002;2023-09-12T03:23:06;22.10;72.60
5960;DHT22;3006;50.956;7.002;2023-09-12T03:25:37;22.10;72.90
5960;DHT22;3006;50.956;7.002;2023-09-12T03:28:06;22.10;72.90
5960;DHT22;3006;50.956;7.002;2023-09-12T03:30:35;22.00;73.70
5960;DHT22;3006;50.956;7.002;2023-09-12T03:33:05;22.10;73.80
5960;DHT22;3006;50.956;7.002;2023-09-12T03:35:34;22.00;73.90
5960;DHT22;3006;50.956;7.002;2023-09-12T03:38:03;22.10;73.60
5960;DHT22;3006;50.956;7.002;2023-09-12T03:40:31;22.10;73.60
5960;DHT22;3006;50.956;7.002;2023-09-12T03:43:01;22.10;73.60
5960;DHT22;3006;50.956;7.002;2023-09-12T03:45:29;22.10;73.80
5960;DHT22;3006;50.956;7.002;2023-09-12T03:47:58;22.20;73.50
5960;DHT22;3006;50.956;7.002;2023-09-12T03:50:26;22.30;73.00
5960;DHT22;3006;50.956;7.002;2023-09-12T03:52:54;22.40;72.80
5960;DHT22;3006;50.956;7.002;2023-09-12T03:55:23;22.30;73.20
5960;DHT22;3006;50.956;7.002;2023-09-12T03:57:51;22.30;73.00
5960;DHT22;3006;50.956;7.002;2023-09-12T04:00:21;22.50;72.90
5960;DHT22;3006;50.956;7.002;2023-09-12T04:02:49;22.40;72.80
5960;DHT22;3006;50.956;7.002;2023-09-12T04:05:18;22.40;72.80
5960;DHT22;3006;50.956;7.002;2023-09-12T04:07:46;22.50;72.80
5960;DHT22;3006;50.956;7.002;2023-09-12T04:10:14;22.50;72.50
5960;DHT22;3006;50.956;7.002;2023-09-12T04:12:42;22.30;73.20
5960;DHT22;3006;50.956;7.002;2023-09-12T04:15:10;22.20;73.50
5960;DHT22;3006;50.956;7.002;2023-09-12T04:17:40;22.20;73.50
5960;DHT22;3006;50.956;7.002;2023-09-12T04:20:09;22.10;74.00
5960;DHT22;3006;50.956;7.002;2023-09-12T04:22:42;22.30;73.70
5960;DHT22;3006;50.956;7.002;2023-09-12T04:25:11;22.30;73.60
5960;DHT22;3006;50.956;7.002;2023-09-12T04:27:40;22.40;73.30
5960;DHT22;3006;50.956;7.002;2023-09-12T04:30:09;22.30;73.50
5960;DHT22;3006;50.956;7.002;2023-09-12T04:32:39;22.50;72.90
5960;DHT22;3006;50.956;7.002;2023-09-12T04:35:08;22.50;72.70
5960;DHT22;3006;50.956;7.002;2023-09-12T04:37:36;22.50;72.70
5960;DHT22;3006;50.956;7.002;2023-09-12T04:40:06;22.30;73.20
5960;DHT22;3006;50.956;7.002;2023-09-12T04:42:35;22.30;73.30
5960;DHT22;3006;50.956;7.002;2023-09-12T04:45:04;22.30;73.10
5960;DHT22;3006;50.956;7.002;2023-09-12T04:47:33;22.30;72.80
5960;DHT22;3006;50.956;7.002;2023-09-12T04:50:03;22.30;73.00
5960;DHT22;3006;50.956;7.002;2023-09-12T04:52:31;22.10;73.40
5960;DHT22;3006;50.956;7.002;2023-09-12T04:55:00;22.20;73.30
5960;DHT22;3006;50.956;7.002;2023-09-12T04:57:28;22.30;73.00
5960;DHT22;3006;50.956;7.002;2023-09-12T04:59:58;22.20;72.80
5960;DHT22;3006;50.956;7.002;2023-09-12T05:02:26;22.20;72.50
5960;DHT22;3006;50.956;7.002;2023-09-12T05:04:55;22.20;73.90
5960;DHT22;3006;50.956;7.002;2023-09-12T05:07:25;22.20;73.90
5960;DHT22;3006;50.956;7.002;2023-09-12T05:09:53;22.20;73.80
5960;DHT22;3006;50.956;7.002;2023-09-12T05:12:22;22.20;73.10
5960;DHT22;3006;50.956;7.002;2023-09-12T05:14:50;22.20;74.10
5960;DHT22;3006;50.956;7.002;2023-09-12T05:17:18;22.10;75.30
5960;DHT22;3006;50.956;7.002;2023-09-12T05:19:47;22.20;74.40
5960;DHT22;3006;50.956;7.002;2023-09-12T05:22:15;22.20;74.50
5960;DHT22;3006;50.956;7.002;2023-09-12T05:24:44;22.10;75.00
5960;DHT22;3006;50.956;7.002;2023-09-12T05:27:12;22.10;74.60
5960;DHT22;3006;50.956;7.002;2023-09-12T05:29:41;22.10;74.10
5960;DHT22;3006;50.956;7.002;2023-09-12T05:32:09;22.20;73.90
5960;DHT22;3006;50.956;7.002;2023-09-12T05:34:37;22.10;74.20
5960;DHT22;3006;50.956;7.002;2023-09-12T05:37:05;22.10;74.40
5960;DHT22;3006;50.956;7.002;2023-09-12T05:39:34;22.10;74.50
5960;DHT22;3006;50.956;7.002;2023-09-12T05:42:03;22.10;74.30
5960;DHT22;3006;50.956;7.002;2023-09-12T05:44:32;22.10;73.90
5960;DHT22;3006;50.956;7.002;2023-09-12T05:47:00;22.10;74.30
5960;DHT22;3006;50.956;7.002;2023-09-12T05:49:29;22.20;73.60
5960;DHT22;3006;50.956;7.002;2023-09-12T05:51:58;22.20;73.50
5960;DHT22;3006;50.956;7.002;2023-09-12T05:54:26;22.30;73.40
5960;DHT22;3006;50.956;7.002;2023-09-12T05:56:55;22.30;73.40
5960;DHT22;3006;50.956;7.002;2023-09-12T05:59:24;22.30;73.40
5960;DHT22;3006;50.956;7.002;2023-09-12T06:01:52;22.40;73.40
5960;DHT22;3006;50.956;7.002;2023-09-12T06:04:21;22.50;73.30
5960;DHT22;3006;50.956;7.002;2023-09-12T06:06:50;22.30;73.60
5960;DHT22;3006;50.956;7.002;2023-09-12T06:09:18;22.40;73.50
5960;DHT22;3006;50.956;7.002;2023-09-12T06:11:46;22.30;73.70
5960;DHT22;3006;50.956;7.002;2023-09-12T06:14:14;22.50;73.50
5960;DHT22;3006;50.956;7.002;2023-09-12T06:16:44;22.60;74.60
5960;DHT22;3006;50.956;7.002;2023-09-12T06:19:12;22.80;74.30
5960;DHT22;3006;50.956;7.002;2023-09-12T06:21:41;22.80;72.90
5960;DHT22;3006;50.956;7.002;2023-09-12T06:24:11;22.70;73.40
5960;DHT22;3006;50.956;7.002;2023-09-12T06:26:40;22.80;72.70
5960;DHT22;3006;50.956;7.002;2023-09-12T06:29:08;22.80;72.40
5960;DHT22;3006;50.956;7.002;2023-09-12T06:31:36;23.00;72.10
5960;DHT22;3006;50.956;7.002;2023-09-12T06:34:06;23.00;71.60
5960;DHT22;3006;50.956;7.002;2023-09-12T06:36:34;23.00;71.10
5960;DHT22;3006;50.956;7.002;2023-09-12T06:39:03;23.00;70.90
5960;DHT22;3006;50.956;7.002;2023-09-12T06:41:32;23.20;70.60
5960;DHT22;3006;50.956;7.002;2023-09-12T06:44:00;23.00;70.90
5960;DHT22;3006;50.956;7.002;2023-09-12T06:46:30;23.10;70.80
5960;DHT22;3006;50.956;7.002;2023-09-12T06:49:00;23.20;70.70
5960;DHT22;3006;50.956;7.002;2023-09-12T06:51:30;23.10;71.50
5960;DHT22;3006;50.956;7.002;2023-09-12T06:54:04;23.10;71.70
5960;DHT22;3006;50.956;7.002;2023-09-12T06:56:32;22.80;73.20
5960;DHT22;3006;50.956;7.002;2023-09-12T06:59:04;22.50;74.30
5960;DHT22;3006;50.956;7.002;2023-09-12T07:01:33;22.50;75.00
5960;DHT22;3006;50.956;7.002;2023-09-12T07:04:01;22.50;75.10
5960;DHT22;3006;50.956;7.002;2023-09-12T07:06:31;22.50;75.00
5960;DHT22;3006;50.956;7.002;2023-09-12T07:09:00;22.50;75.40
5960;DHT22;3006;50.956;7.002;2023-09-12T07:11:30;22.50;75.30
5960;DHT22;3006;50.956;7.002;2023-09-12T07:13:59;22.50;75.30
5960;DHT22;3006;50.956;7.002;2023-09-12T07:16:27;22.50;75.50
5960;DHT22;3006;50.956;7.002;2023-09-12T07:18:55;22.50;75.00
5960;DHT22;3006;50.956;7.002;2023-09-12T07:21:23;22.50;74.50
5960;DHT22;3006;50.956;7.002;2023-09-12T07:23:53;22.50;74.50
5960;DHT22;3006;50.956;7.002;2023-09-12T07:26:21;22.40;74.70
5960;DHT22;3006;50.956;7.002;2023-09-12T07:28:53;22.50;74.60
5960;DHT22;3006;50.956;7.002;2023-09-12T07:31:22;22.50;74.40
5960;DHT22;3006;50.956;7.002;2023-09-12T07:33:50;22.30;74.20
5960;DHT22;3006;50.956;7.002;2023-09-12T07:36:18;22.30;74.50
5960;DHT22;3006;50.956;7.002;2023-09-12T07:38:49;22.50;74.40
5960;DHT22;3006;50.956;7.002;2023-09-12T07:41:19;22.50;74.10
5960;DHT22;3006;50.956;7.002;2023-09-12T07:43:47;22.60;73.70
5960;DHT22;3006;50.956;7.002;2023-09-12T07:46:15;22.60;73.60
5960;DHT22;3006;50.956;7.002;2023-09-12T07:48:43;22.70;73.60
5960;DHT22;3006;50.956;7.002;2023-09-12T07:51:12;22.70;73.00
5960;DHT22;3006;50.956;7.002;2023-09-12T07:53:41;22.60;73.70
5960;DHT22;3006;50.956;7.002;2023-09-12T07:56:10;22.70;73.50
5960;DHT22;3006;50.956;7.002;2023-09-12T07:58:39;22.70;73.20
5960;DHT22;3006;50.956;7.002;2023-09-12T08:01:08;22.70;73.00
5960;DHT22;3006;50.956;7.002;2023-09-12T08:03:37;22.70;73.00
5960;DHT22;3006;50.956;7.002;2023-09-12T08:06:08;22.70;72.90
5960;DHT22;3006;50.956;7.002;2023-09-12T08:08:36;22.70;72.90
5960;DHT22;3006;50.956;7.002;2023-09-12T08:11:04;22.80;72.90
5960;DHT22;3006;50.956;7.002;2023-09-12T08:13:32;22.90;72.80
5960;DHT22;3006;50.956;7.002;2023-09-12T08:16:01;22.90;72.20
5960;DHT22;3006;50.956;7.002;2023-09-12T08:18:30;22.90;72.10
5960;DHT22;3006;50.956;7.002;2023-09-12T08:20:58;23.00;71.90
5960;DHT22;3006;50.956;7.002;2023-09-12T08:23:26;23.10;71.70
5960;DHT22;3006;50.956;7.002;2023-09-12T08:25:55;23.20;71.20
5960;DHT22;3006;50.956;7.002;2023-09-12T08:28:23;23.20;71.20
5960;DHT22;3006;50.956;7.002;2023-09-12T08:30:51;23.30;70.70
5960;DHT22;3006;50.956;7.002;2023-09-12T08:33:21;23.40;70.60
5960;DHT22;3006;50.956;7.002;2023-09-12T08:35:52;23.40;71.20
5960;DHT22;3006;50.956;7.002;2023-09-12T08:38:20;23.50;70.90
5960;DHT22;3006;50.956;7.002;2023-09-12T08:40:49;23.50;70.40
5960;DHT22;3006;50.956;7.002;2023-09-12T08:43:17;23.50;70.20
5960;DHT22;3006;50.956;7.002;2023-09-12T08:45:46;23.40;70.10
5960;DHT22;3006;50.956;7.002;2023-09-12T08:48:15;23.50;70.50
5960;DHT22;3006;50.956;7.002;2023-09-12T08:50:48;23.60;70.50
5960;DHT22;3006;50.956;7.002;2023-09-12T08:53:17;23.60;70.50
5960;DHT22;3006;50.956;7.002;2023-09-12T08:55:49;23.60;70.50
5960;DHT22;3006;50.956;7.002;2023-09-12T08:58:19;23.80;70.20
5960;DHT22;3006;50.956;7.002;2023-09-12T09:00:48;23.80;70.10
5960;DHT22;3006;50.956;7.002;2023-09-12T09:03:18;23.80;70.50
5960;DHT22;3006;50.956;7.002;2023-09-12T09:05:49;23.70;70.30
5960;DHT22;3006;50.956;7.002;2023-09-12T09:08:20;23.60;70.50
5960;DHT22;3006;50.956;7.002;2023-09-12T09:10:56;23.60;70.60
5960;DHT22;3006;50.956;7.002;2023-09-12T09:13:24;23.70;70.70
5960;DHT22;3006;50.956;7.002;2023-09-12T09:16:11;23.60;70.60
5960;DHT22;3006;50.956;7.002;2023-09-12T09:18:55;23.60;70.60
5960;DHT22;3006;50.956;7.002;2023-09-12T09:21:27;23.70;70.40
5960;DHT22;3006;50.956;7.002;2023-09-12T09:23:59;23.70;70.50
5960;DHT22;3006;50.956;7.002;2023-09-12T09:26:41;23.90;70.30
5960;DHT22;3006;50.956;7.002;2023-09-12T09:29:12;23.80;69.60
5960;DHT22;3006;50.956;7.002;2023-09-12T09:31:41;23.90;69.30
5960;DHT22;3006;50.956;7.002;2023-09-12T09:34:14;23.80;69.50
5960;DHT22;3006;50.956;7.002;2023-09-12T09:36:48;23.80;69.90
5960;DHT22;3006;50.956;7.002;2023-09-12T09:39:17;23.70;69.70
5960;DHT22;3006;50.956;7.002;2023-09-12T09:41:47;23.70;70.10
5960;DHT22;3006;50.956;7.002;2023-09-12T09:44:16;23.80;70.20
5960;DHT22;3006;50.956;7.002;2023-09-12T09:46:46;24.00;70.20
5960;DHT22;3006;50.956;7.002;2023-09-12T09:49:15;24.10;69.90
5960;DHT22;3006;50.956;7.002;2023-09-12T09:51:46;24.40;69.10
5960;DHT22;3006;50.956;7.002;2023-09-12T09:54:14;24.40;68.50
5960;DHT22;3006;50.956;7.002;2023-09-12T09:56:46;24.40;68.60
5960;DHT22;3006;50.956;7.002;2023-09-12T09:59:16;24.40;68.50
5960;DHT22;3006;50.956;7.002;2023-09-12T10:01:45;24.50;68.20
5960;DHT22;3006;50.956;7.002;2023-09-12T10:04:14;24.60;68.00
5960;DHT22;3006;50.956;7.002;2023-09-12T10:06:46;24.70;68.10
5960;DHT22;3006;50.956;7.002;2023-09-12T10:09:15;24.50;68.30
5960;DHT22;3006;50.956;7.002;2023-09-12T10:11:46;24.50;68.80
5960;DHT22;3006;50.956;7.002;2023-09-12T10:14:16;24.40;68.40
5960;DHT22;3006;50.956;7.002;2023-09-12T10:16:48;24.20;69.60
5960;DHT22;3006;50.956;7.002;2023-09-12T10:19:20;24.20;69.40
5960;DHT22;3006;50.956;7.002;2023-09-12T10:22:01;24.30;69.20
5960;DHT22;3006;50.956;7.002;2023-09-12T10:24:33;24.30;70.10
5960;DHT22;3006;50.956;7.002;2023-09-12T10:27:04;24.30;69.80
5960;DHT22;3006;50.956;7.002;2023-09-12T10:29:34;24.20;70.50
5960;DHT22;3006;50.956;7.002;2023-09-12T10:32:03;24.30;70.40
5960;DHT22;3006;50.956;7.002;2023-09-12T10:34:32;24.40;70.40
5960;DHT22;3006;50.956;7.002;2023-09-12T10:37:03;24.40;69.70
5960;DHT22;3006;50.956;7.002;2023-09-12T10:39:34;24.40;70.00
5960;DHT22;3006;50.956;7.002;2023-09-12T10:42:04;24.40;70.20
5960;DHT22;3006;50.956;7.002;2023-09-12T10:44:32;24.50;69.70
5960;DHT22;3006;50.956;7.002;2023-09-12T10:47:02;24.70;68.60
5960;DHT22;3006;50.956;7.002;2023-09-12T10:49:32;24.50;68.70
5960;DHT22;3006;50.956;7.002;2023-09-12T10:52:03;24.60;69.00
5960;DHT22;3006;50.956;7.002;2023-09-12T10:54:37;24.80;68.70
5960;DHT22;3006;50.956;7.002;2023-09-12T10:57:06;24.80;68.00
5960;DHT22;3006;50.956;7.002;2023-09-12T10:59:35;24.80;67.80
5960;DHT22;3006;50.956;7.002;2023-09-12T11:02:28;24.80;68.00
5960;DHT22;3006;50.956;7.002;2023-09-12T11:04:57;24.70;68.20
5960;DHT22;3006;50.956;7.002;2023-09-12T11:07:44;24.70;68.60
5960;DHT22;3006;50.956;7.002;2023-09-12T11:10:22;24.70;68.50
5960;DHT22;3006;50.956;7.002;2023-09-12T11:12:51;24.80;68.40
5960;DHT22;3006;50.956;7.002;2023-09-12T11:15:21;24.80;67.70
5960;DHT22;3006;50.956;7.002;2023-09-12T11:18:00;24.60;68.60
5960;DHT22;3006;50.956;7.002;2023-09-12T11:20:50;24.60;68.30
5960;DHT22;3006;50.956;7.002;2023-09-12T11:23:20;24.70;68.10
5960;DHT22;3006;50.956;7.002;2023-09-12T11:25:54;24.70;68.20
5960;DHT22;3006;50.956;7.002;2023-09-12T11:28:31;24.80;68.00
5960;DHT22;3006;50.956;7.002;2023-09-12T11:30:59;24.70;68.60
5960;DHT22;3006;50.956;7.002;2023-09-12T11:33:28;25.00;68.30
5960;DHT22;3006;50.956;7.002;2023-09-12T11:35:56;25.00;67.70
5960;DHT22;3006;50.956;7.002;2023-09-12T11:38:30;25.00;67.70
5960;DHT22;3006;50.956;7.002;2023-09-12T11:40:59;25.00;67.90
5960;DHT22;3006;50.956;7.002;2023-09-12T11:43:28;25.00;67.10
5960;DHT22;3006;50.956;7.002;2023-09-12T11:45:57;25.00;66.80
5960;DHT22;3006;50.956;7.002;2023-09-12T11:48:25;25.00;67.40
5960;DHT22;3006;50.956;7.002;2023-09-12T11:50:57;25.20;66.80
5960;DHT22;3006;50.956;7.002;2023-09-12T11:53:27;25.10;66.70
5960;DHT22;3006;50.956;7.002;2023-09-12T11:56:00;25.20;66.90
5960;DHT22;3006;50.956;7.002;2023-09-12T11:58:28;25.30;66.70
5960;DHT22;3006;50.956;7.002;2023-09-12T12:00:57;25.40;66.40
5960;DHT22;3006;50.956;7.002;2023-09-12T12:03:27;25.50;65.60
5960;DHT22;3006;50.956;7.002;2023-09-12T12:05:56;25.50;66.00
5960;DHT22;3006;50.956;7.002;2023-09-12T12:08:25;25.70;65.10
5960;DHT22;3006;50.956;7.002;2023-09-12T12:11:00;25.60;65.10
5960;DHT22;3006;50.956;7.002;2023-09-12T12:13:28;25.60;65.40
5960;DHT22;3006;50.956;7.002;2023-09-12T12:15:56;25.70;65.40
5960;DHT22;3006;50.956;7.002;2023-09-12T12:18:25;25.60;65.20
5960;DHT22;3006;50.956;7.002;2023-09-12T12:20:54;25.80;64.70
5960;DHT22;3006;50.956;7.002;2023-09-12T12:23:22;26.00;64.80
5960;DHT22;3006;50.956;7.002;2023-09-12T12:25:50;26.00;64.40
5960;DHT22;3006;50.956;7.002;2023-09-12T12:28:20;26.00;64.20
5960;DHT22;3006;50.956;7.002;2023-09-12T12:30:52;26.00;64.30
5960;DHT22;3006;50.956;7.002;2023-09-12T12:33:21;26.10;63.70
5960;DHT22;3006;50.956;7.002;2023-09-12T12:36:09;26.00;64.10
5960;DHT22;3006;50.956;7.002;2023-09-12T12:38:38;26.20;64.10
5960;DHT22;3006;50.956;7.002;2023-09-12T12:41:27;26.30;63.50
5960;DHT22;3006;50.956;7.002;2023-09-12T12:44:13;26.40;63.30
5960;DHT22;3006;50.956;7.002;2023-09-12T12:46:48;26.40;63.30
5960;DHT22;3006;50.956;7.002;2023-09-12T12:49:17;26.60;62.80
5960;DHT22;3006;50.956;7.002;2023-09-12T12:51:45;26.70;62.50
5960;DHT22;3006;50.956;7.002;2023-09-12T12:54:14;26.50;62.60
5960;DHT22;3006;50.956;7.002;2023-09-12T12:56:43;26.70;62.20
5960;DHT22;3006;50.956;7.002;2023-09-12T12:59:13;26.90;61.30
5960;DHT22;3006;50.956;7.002;2023-09-12T13:01:44;26.50;61.50
5960;DHT22;3006;50.956;7.002;2023-09-12T13:04:12;26.70;61.90
5960;DHT22;3006;50.956;7.002;2023-09-12T13:06:41;26.40;61.70
5960;DHT22;3006;50.956;7.002;2023-09-12T13:09:09;26.40;62.10
5960;DHT22;3006;50.956;7.002;2023-09-12T13:11:39;26.40;61.90
5960;DHT22;3006;50.956;7.002;2023-09-12T13:14:07;26.50;62.40
5960;DHT22;3006;50.956;7.002;2023-09-12T13:16:40;26.70;61.50
5960;DHT22;3006;50.956;7.002;2023-09-12T13:19:09;26.80;60.50
5960;DHT22;3006;50.956;7.002;2023-09-12T13:21:39;26.60;61.40
5960;DHT22;3006;50.956;7.002;2023-09-12T13:24:09;26.70;60.60
5960;DHT22;3006;50.956;7.002;2023-09-12T13:26:37;26.60;60.50
5960;DHT22;3006;50.956;7.002;2023-09-12T13:29:06;26.40;61.00
5960;DHT22;3006;50.956;7.002;2023-09-12T13:31:35;26.20;61.40
5960;DHT22;3006;50.956;7.002;2023-09-12T13:34:04;26.20;61.50
5960;DHT22;3006;50.956;7.002;2023-09-12T13:36:32;26.20;61.70
5960;DHT22;3006;50.956;7.002;2023-09-12T13:39:00;26.30;61.50
5960;DHT22;3006;50.956;7.002;2023-09-12T13:41:29;26.40;61.70
5960;DHT22;3006;50.956;7.002;2023-09-12T13:43:57;26.60;60.50
5960;DHT22;3006;50.956;7.002;2023-09-12T13:46:25;26.70;60.70
5960;DHT22;3006;50.956;7.002;2023-09-12T13:48:54;26.90;60.40
5960;DHT22;3006;50.956;7.002;2023-09-12T13:51:25;27.00;60.00
5960;DHT22;3006;50.956;7.002;2023-09-12T13:53:53;26.90;60.10
5960;DHT22;3006;50.956;7.002;2023-09-12T13:56:21;26.90;59.00
5960;DHT22;3006;50.956;7.002;2023-09-12T13:58:49;26.40;59.60
5960;DHT22;3006;50.956;7.002;2023-09-12T14:01:18;26.20;60.20
5960;DHT22;3006;50.956;7.002;2023-09-12T14:04:00;26.10;60.60
5960;DHT22;3006;50.956;7.002;2023-09-12T14:06:32;26.20;60.10
5960;DHT22;3006;50.956;7.002;2023-09-12T14:09:01;26.20;60.30
5960;DHT22;3006;50.956;7.002;2023-09-12T14:11:30;26.20;59.90
5960;DHT22;3006;50.956;7.002;2023-09-12T14:14:03;26.20;60.00
5960;DHT22;3006;50.956;7.002;2023-09-12T14:16:34;26.20;59.00
5960;DHT22;3006;50.956;7.002;2023-09-12T14:19:02;26.20;59.00
5960;DHT22;3006;50.956;7.002;2023-09-12T14:21:32;26.30;58.40
5960;DHT22;3006;50.956;7.002;2023-09-12T14:24:01;26.20;58.90
5960;DHT22;3006;50.956;7.002;2023-09-12T14:26:31;26.20;59.40
5960;DHT22;3006;50.956;7.002;2023-09-12T14:29:00;26.10;59.40
5960;DHT22;3006;50.956;7.002;2023-09-12T14:31:29;26.20;59.30
5960;DHT22;3006;50.956;7.002;2023-09-12T14:33:57;26.20;58.80
5960;DHT22;3006;50.956;7.002;2023-09-12T14:36:26;26.10;57.20
5960;DHT22;3006;50.956;7.002;2023-09-12T14:38:55;26.20;57.60
5960;DHT22;3006;50.956;7.002;2023-09-12T14:41:23;26.10;59.20
5960;DHT22;3006;50.956;7.002;2023-09-12T14:43:52;26.10;59.60
5960;DHT22;3006;50.956;7.002;2023-09-12T14:46:20;26.10;60.00
5960;DHT22;3006;50.956;7.002;2023-09-12T14:48:49;26.10;60.70
5960;DHT22;3006;50.956;7.002;2023-09-12T14:51:27;26.40;60.10
5960;DHT22;3006;50.956;7.002;2023-09-12T14:54:02;26.50;60.10
5960;DHT22;3006;50.956;7.002;2023-09-12T14:56:30;27.00;59.90
5960;DHT22;3006;50.956;7.002;2023-09-12T14:58:58;27.80;58.20
5960;DHT22;3006;50.956;7.002;2023-09-12T15:01:27;28.30;54.30
5960;DHT22;3006;50.956;7.002;2023-09-12T15:03:55;27.50;56.30
5960;DHT22;3006;50.956;7.002;2023-09-12T15:06:23;27.10;57.30
5960;DHT22;3006;50.956;7.002;2023-09-12T15:08:52;27.20;58.70
5960;DHT22;3006;50.956;7.002;2023-09-12T15:11:22;27.30;56.60
5960;DHT22;3006;50.956;7.002;2023-09-12T15:13:50;27.00;57.10
5960;DHT22;3006;50.956;7.002;2023-09-12T15:16:18;26.70;57.70
5960;DHT22;3006;50.956;7.002;2023-09-12T15:18:47;26.70;58.70
5960;DHT22;3006;50.956;7.002;2023-09-12T15:21:15;26.70;58.00
5960;DHT22;3006;50.956;7.002;2023-09-12T15:23:43;26.70;58.50
5960;DHT22;3006;50.956;7.002;2023-09-12T15:26:12;26.70;58.30
5960;DHT22;3006;50.956;7.002;2023-09-12T15:28:42;26.60;58.00
5960;DHT22;3006;50.956;7.002;2023-09-12T15:31:10;26.60;58.90
5960;DHT22;3006;50.956;7.002;2023-09-12T15:33:38;26.50;58.60
5960;DHT22;3006;50.956;7.002;2023-09-12T15:36:07;26.50;58.70
5960;DHT22;3006;50.956;7.002;2023-09-12T15:38:35;26.50;58.60
5960;DHT22;3006;50.956;7.002;2023-09-12T15:41:03;26.40;58.40
5960;DHT22;3006;50.956;7.002;2023-09-12T15:43:34;26.20;58.90
5960;DHT22;3006;50.956;7.002;2023-09-12T15:46:04;26.20;59.00
5960;DHT22;3006;50.956;7.002;2023-09-12T15:48:32;26.10;59.20
5960;DHT22;3006;50.956;7.002;2023-09-12T15:51:01;26.00;59.20
5960;DHT22;3006;50.956;7.002;2023-09-12T15:53:31;26.00;59.40
5960;DHT22;3006;50.956;7.002;2023-09-12T15:55:59;26.00;59.40
5960;DHT22;3006;50.956;7.002;2023-09-12T15:58:27;26.00;59.40
5960;DHT22;3006;50.956;7.002;2023-09-12T16:00:56;25.90;59.10
5960;DHT22;3006;50.956;7.002;2023-09-12T16:03:28;25.80;59.10
5960;DHT22;3006;50.956;7.002;2023-09-12T16:05:56;25.90;59.20
5960;DHT22;3006;50.956;7.002;2023-09-12T16:08:24;25.80;59.30
5960;DHT22;3006;50.956;7.002;2023-09-12T16:10:53;25.80;59.40
5960;DHT22;3006;50.956;7.002;2023-09-12T16:13:21;25.80;59.60
5960;DHT22;3006;50.956;7.002;2023-09-12T16:15:49;25.60;59.90
5960;DHT22;3006;50.956;7.002;2023-09-12T16:18:17;25.70;59.80
5960;DHT22;3006;50.956;7.002;2023-09-12T16:20:47;25.60;59.80